Time;durP1;ratioP1;P1;durP2;ratioP2;P2;SDS_P1;SDS_P2;PMS_P1;PMS_P2;Temp;Humidity;BMP_temperature;BMP_pressure;BME280_temperature;BME280_humidity;BME280_pressure;Samples;Min_cycle;Max_cycle;Signal;HPM_P1;HPM_P2
2022/05/08 00:01:09;;;;;;;;;48.00;37.00;;;;;;;;5074237;28;45399;-78
2022/05/08 00:03:35;;;;;;;;;46.00;38.00;;;;;;;;5059102;28;45322;-76
2022/05/08 00:06:06;;;;;;;;;50.33;38.67;;;;;;;;5059043;28;45415;-77
2022/05/08 00:08:31;;;;;;;;;50.00;38.33;;;;;;;;5058766;28;47291;-76
2022/05/08 00:10:57;;;;;;;;;47.67;38.33;;;;;;;;5058975;28;45187;-77
2022/05/08 00:13:22;;;;;;;;;51.00;40.00;;;;;;;;5058652;28;45718;-77
2022/05/08 00:15:47;;;;;;;;;50.67;39.33;;;;;;;;5059298;28;45196;-77
2022/05/08 00:18:12;;;;;;;;;50.00;39.33;;;;;;;;5058653;28;47160;-76
2022/05/08 00:20:37;;;;;;;;;52.00;38.67;;;;;;;;5058803;28;45201;-77
2022/05/08 00:23:03;;;;;;;;;49.00;39.33;;;;;;;;5058905;28;45339;-76
2022/05/08 00:25:28;;;;;;;;;53.00;40.33;;;;;;;;5058926;28;45328;-77
2022/05/08 00:27:53;;;;;;;;;53.00;41.00;;;;;;;;5058296;28;46122;-76
2022/05/08 00:30:18;;;;;;;;;50.00;38.67;;;;;;;;5058345;28;45339;-77
2022/05/08 00:32:44;;;;;;;;;45.00;37.67;;;;;;;;5058552;28;45301;-78
2022/05/08 00:35:12;;;;;;;;;50.33;40.33;;;;;;;;5058879;28;45683;-76
2022/05/08 00:37:40;;;;;;;;;49.67;40.33;;;;;;;;5058064;28;46521;-76
2022/05/08 00:40:06;;;;;;;;;51.33;39.67;;;;;;;;5058011;28;45360;-76
2022/05/08 00:42:31;;;;;;;;;48.67;41.33;;;;;;;;5057787;28;45302;-76
2022/05/08 00:44:56;;;;;;;;;51.00;41.00;;;;;;;;5058226;28;45422;-76
2022/05/08 00:47:21;;;;;;;;;49.67;39.67;;;;;;;;5058221;28;45454;-77
2022/05/08 00:49:48;;;;;;;;;43.67;37.67;;;;;;;;5058093;28;45285;-77
2022/05/08 00:52:13;;;;;;;;;48.33;38.33;;;;;;;;5058316;28;45411;-76
2022/05/08 00:54:38;;;;;;;;;51.33;41.33;;;;;;;;5058271;28;45261;-77
2022/05/08 00:57:06;;;;;;;;;51.67;38.67;;;;;;;;5057828;28;46401;-76
2022/05/08 00:59:31;;;;;;;;;49.67;38.33;;;;;;;;5058000;28;45419;-77
2022/05/08 01:01:56;;;;;;;;;47.67;38.00;;;;;;;;5057238;28;45462;-76
2022/05/08 01:04:22;;;;;;;;;47.67;38.33;;;;;;;;5057862;28;45399;-77
2022/05/08 01:06:47;;;;;;;;;49.33;37.67;;;;;;;;5057971;28;46103;-77
2022/05/08 01:09:13;;;;;;;;;48.33;38.33;;;;;;;;5057738;28;45379;-77
2022/05/08 01:11:38;;;;;;;;;46.67;36.67;;;;;;;;5058082;28;45411;-77
2022/05/08 01:14:03;;;;;;;;;50.67;40.00;;;;;;;;5057853;28;45447;-77
2022/05/08 01:16:29;;;;;;;;;45.00;36.67;;;;;;;;5057171;28;45542;-78
2022/05/08 01:18:54;;;;;;;;;44.33;37.33;;;;;;;;5057727;28;45314;-77
2022/05/08 01:21:23;;;;;;;;;43.67;35.33;;;;;;;;5057924;28;45377;-77
2022/05/08 01:23:48;;;;;;;;;49.00;37.67;;;;;;;;5057714;28;45356;-77
2022/05/08 01:26:20;;;;;;;;;49.67;40.00;;;;;;;;5057314;28;45362;-77
2022/05/08 01:28:45;;;;;;;;;48.67;38.33;;;;;;;;5057483;28;45272;-77
2022/05/08 01:31:10;;;;;;;;;50.00;39.00;;;;;;;;5057569;28;45199;-77
2022/05/08 01:33:35;;;;;;;;;46.33;38.00;;;;;;;;5057749;28;45279;-76
2022/05/08 01:36:01;;;;;;;;;44.67;35.33;;;;;;;;5057408;28;45728;-77
2022/05/08 01:38:26;;;;;;;;;50.00;39.00;;;;;;;;5057299;28;45351;-76
2022/05/08 01:40:51;;;;;;;;;47.00;38.00;;;;;;;;5057234;28;45375;-76
2022/05/08 01:43:17;;;;;;;;;46.00;36.33;;;;;;;;5057580;28;45430;-76
2022/05/08 01:45:42;;;;;;;;;47.00;37.67;;;;;;;;5057031;28;46245;-76
2022/05/08 01:48:23;;;;;;;;;42.00;34.67;;;;;;;;5057366;28;45245;-76
2022/05/08 01:50:50;;;;;;;;;46.00;37.00;;;;;;;;5057457;28;45541;-76
2022/05/08 01:53:16;;;;;;;;;46.33;36.33;;;;;;;;5057147;28;45442;-77
2022/05/08 01:55:43;;;;;;;;;46.33;36.00;;;;;;;;5056794;28;45389;-77
2022/05/08 01:58:09;;;;;;;;;45.00;36.00;;;;;;;;5057328;28;45451;-77
2022/05/08 02:00:35;;;;;;;;;45.00;34.67;;;;;;;;5057173;28;45435;-76
2022/05/08 02:03:01;;;;;;;;;44.33;35.67;;;;;;;;5057338;28;45366;-77
2022/05/08 02:05:28;;;;;;;;;36.33;30.33;;;;;;;;5056846;28;45536;-76
2022/05/08 02:07:53;;;;;;;;;45.33;36.67;;;;;;;;5056930;28;45371;-76
2022/05/08 02:10:18;;;;;;;;;39.33;32.00;;;;;;;;5057097;28;45357;-76
2022/05/08 02:12:44;;;;;;;;;36.33;32.67;;;;;;;;5057322;28;45366;-76
2022/05/08 02:15:11;;;;;;;;;42.33;33.00;;;;;;;;5056681;28;45386;-76
2022/05/08 02:17:37;;;;;;;;;36.67;33.00;;;;;;;;5056762;28;45215;-76
2022/05/08 02:20:03;;;;;;;;;38.00;33.00;;;;;;;;5056907;28;45459;-76
2022/05/08 02:22:29;;;;;;;;;45.33;34.00;;;;;;;;5057019;28;45277;-76
2022/05/08 02:24:54;;;;;;;;;34.33;30.33;;;;;;;;5056545;28;45366;-75
2022/05/08 02:27:20;;;;;;;;;33.00;31.33;;;;;;;;5056901;28;45355;-75
2022/05/08 02:29:48;;;;;;;;;40.67;31.67;;;;;;;;5056760;28;45362;-75
2022/05/08 02:32:14;;;;;;;;;34.00;30.67;;;;;;;;5057017;28;45322;-75
2022/05/08 02:34:40;;;;;;;;;35.33;30.67;;;;;;;;5056608;28;46690;-76
2022/05/08 02:37:05;;;;;;;;;38.33;32.00;;;;;;;;5056408;28;45236;-76
2022/05/08 02:39:30;;;;;;;;;34.67;27.67;;;;;;;;5056805;28;45283;-76
2022/05/08 02:41:55;;;;;;;;;38.67;30.67;;;;;;;;5056795;28;45904;-75
2022/05/08 02:44:20;;;;;;;;;35.67;32.00;;;;;;;;5056312;28;45585;-75
2022/05/08 02:46:46;;;;;;;;;32.00;29.67;;;;;;;;5072109;28;45320;-75
2022/05/08 02:49:11;;;;;;;;;31.33;28.67;;;;;;;;5056545;28;45426;-75
2022/05/08 02:51:36;;;;;;;;;36.33;30.00;;;;;;;;5057063;28;45308;-75
2022/05/08 02:54:02;;;;;;;;;40.67;33.33;;;;;;;;5056195;28;45301;-76
2022/05/08 02:59:11;;;;;;;;;32.67;30.00;;;;;;;;5056398;28;45484;-76
2022/05/08 03:01:36;;;;;;;;;34.33;29.33;;;;;;;;5056451;28;45310;-76
2022/05/08 03:04:01;;;;;;;;;29.00;27.00;;;;;;;;5056611;28;45443;-75
2022/05/08 03:06:27;;;;;;;;;20.67;19.00;;;;;;;;5059740;28;45213;-76
2022/05/08 03:08:52;;;;;;;;;35.00;29.33;;;;;;;;5059782;28;45185;-76
2022/05/08 03:11:26;;;;;;;;;30.67;25.67;;;;;;;;5059970;28;45455;-76
2022/05/08 03:13:52;;;;;;;;;26.00;25.67;;;;;;;;5059544;28;46186;-76
2022/05/08 03:16:17;;;;;;;;;28.67;26.00;;;;;;;;5059338;28;45286;-76
2022/05/08 03:18:45;;;;;;;;;27.67;27.33;;;;;;;;5059974;28;45279;-76
2022/05/08 03:21:10;;;;;;;;;25.33;24.67;;;;;;;;5059649;28;45414;-76
2022/05/08 03:23:35;;;;;;;;;29.00;22.33;;;;;;;;5059433;28;45493;-76
2022/05/08 03:26:01;;;;;;;;;23.00;23.00;;;;;;;;5059648;28;45390;-76
2022/05/08 03:28:27;;;;;;;;;29.67;25.67;;;;;;;;5059604;28;45448;-76
2022/05/08 03:30:52;;;;;;;;;30.67;28.33;;;;;;;;5059922;28;45356;-77
2022/05/08 03:33:18;;;;;;;;;28.33;23.00;;;;;;;;5059470;28;46419;-76
2022/05/08 03:35:43;;;;;;;;;24.67;20.33;;;;;;;;5059424;28;45532;-76
2022/05/08 03:38:11;;;;;;;;;23.00;20.33;;;;;;;;5059553;28;45779;-76
2022/05/08 03:40:36;;;;;;;;;24.00;21.67;;;;;;;;5059402;28;45147;-76
2022/05/08 03:43:02;;;;;;;;;26.00;22.33;;;;;;;;5059760;27;45529;-75
2022/05/08 03:45:28;;;;;;;;;27.00;23.67;;;;;;;;5059251;28;45466;-75
2022/05/08 03:47:54;;;;;;;;;24.67;22.67;;;;;;;;5059011;28;45229;-76
2022/05/08 03:50:20;;;;;;;;;51.25;41.25;;;;;;;;5059390;28;45184;-75
2022/05/08 03:52:45;;;;;;;;;26.00;24.33;;;;;;;;5059035;28;45671;-75
2022/05/08 03:55:15;;;;;;;;;24.00;21.67;;;;;;;;5058909;28;45299;-74
2022/05/08 03:57:42;;;;;;;;;25.67;22.00;;;;;;;;5059094;28;45245;-75
2022/05/08 04:00:07;;;;;;;;;27.00;22.00;;;;;;;;5059034;28;45451;-75
2022/05/08 04:02:33;;;;;;;;;21.67;19.33;;;;;;;;5059010;28;45304;-76
2022/05/08 04:05:00;;;;;;;;;20.33;17.67;;;;;;;;5058928;28;45332;-75
2022/05/08 04:07:25;;;;;;;;;26.67;20.00;;;;;;;;5059030;28;45324;-75
2022/05/08 04:09:50;;;;;;;;;19.67;18.33;;;;;;;;5059016;28;45336;-76
2022/05/08 04:12:15;;;;;;;;;22.33;18.67;;;;;;;;5058751;28;46119;-75
2022/05/08 04:14:41;;;;;;;;;20.33;20.00;;;;;;;;5058832;28;45335;-75
2022/05/08 04:17:06;;;;;;;;;25.00;19.67;;;;;;;;5058756;28;45412;-76
2022/05/08 04:19:31;;;;;;;;;19.00;17.67;;;;;;;;5058972;28;45295;-75
2022/05/08 04:25:00;;;;;;;;;17.67;17.67;;;;;;;;5036236;28;45420;-76
2022/05/08 04:27:25;;;;;;;;;25.67;21.67;;;;;;;;5036483;28;45683;-76
2022/05/08 04:29:51;;;;;;;;;19.00;16.67;;;;;;;;5036424;28;45874;-76
2022/05/08 04:32:16;;;;;;;;;20.00;18.00;;;;;;;;5036353;28;45605;-77
2022/05/08 04:34:41;;;;;;;;;19.67;19.67;;;;;;;;5035939;28;45408;-76
2022/05/08 04:37:06;;;;;;;;;21.00;19.67;;;;;;;;5036123;28;45812;-75
2022/05/08 04:39:32;;;;;;;;;21.67;18.67;;;;;;;;5036250;28;45673;-77
2022/05/08 04:41:57;;;;;;;;;21.33;18.00;;;;;;;;5035759;28;47106;-78
2022/05/08 04:44:22;;;;;;;;;19.67;17.67;;;;;;;;5036018;28;45433;-77
2022/05/08 04:46:47;;;;;;;;;22.33;17.67;;;;;;;;5036032;28;45772;-77
2022/05/08 04:49:13;;;;;;;;;19.00;16.00;;;;;;;;5036348;28;45354;-77
2022/05/08 04:51:38;;;;;;;;;20.33;17.33;;;;;;;;5035738;28;45557;-77
2022/05/08 04:54:03;;;;;;;;;18.67;18.67;;;;;;;;5035672;28;45441;-76
2022/05/08 04:56:29;;;;;;;;;22.67;17.33;;;;;;;;5053631;28;45391;-76
2022/05/08 04:58:55;;;;;;;;;30.67;28.00;;;;;;;;5058185;28;45460;-77
2022/05/08 05:01:21;;;;;;;;;15.67;13.00;;;;;;;;5057677;28;45723;-75
2022/05/08 05:03:47;;;;;;;;;21.67;18.33;;;;;;;;5057905;28;45344;-76
2022/05/08 05:06:12;;;;;;;;;24.33;23.00;;;;;;;;5057912;28;45194;-77
2022/05/08 05:08:37;;;;;;;;;15.67;15.67;;;;;;;;5058502;28;45256;-76
2022/05/08 05:11:06;;;;;;;;;19.67;18.33;;;;;;;;5057848;28;46495;-76
2022/05/08 05:13:31;;;;;;;;;26.67;20.00;;;;;;;;5057997;28;45354;-76
2022/05/08 05:15:57;;;;;;;;;20.00;19.33;;;;;;;;5057590;28;45383;-75
2022/05/08 05:18:22;;;;;;;;;28.00;19.67;;;;;;;;5058068;28;45362;-75
2022/05/08 05:20:47;;;;;;;;;17.67;16.67;;;;;;;;5057935;28;46508;-75
2022/05/08 05:23:12;;;;;;;;;17.67;17.00;;;;;;;;5057521;28;45408;-75
2022/05/08 05:25:38;;;;;;;;;23.33;21.33;;;;;;;;5057828;28;45447;-76
2022/05/08 05:28:03;;;;;;;;;18.67;17.33;;;;;;;;5057201;28;45308;-76
2022/05/08 05:30:29;;;;;;;;;13.67;12.67;;;;;;;;5057158;28;46220;-76
2022/05/08 05:32:54;;;;;;;;;18.00;14.33;;;;;;;;5057594;28;45399;-76
2022/05/08 05:35:19;;;;;;;;;23.00;19.33;;;;;;;;5057661;28;45304;-77
2022/05/08 05:37:44;;;;;;;;;21.67;21.33;;;;;;;;5057814;28;45490;-77
2022/05/08 05:40:11;;;;;;;;;18.00;15.00;;;;;;;;5057180;28;45415;-77
2022/05/08 05:42:36;;;;;;;;;22.33;19.67;;;;;;;;5057644;28;45399;-75
2022/05/08 05:45:02;;;;;;;;;25.67;21.00;;;;;;;;5057246;28;45299;-76
2022/05/08 05:50:11;;;;;;;;;22.00;21.00;;;;;;;;5056919;28;45682;-76
2022/05/08 05:52:37;;;;;;;;;17.67;16.00;;;;;;;;5057264;28;45249;-74
2022/05/08 05:55:06;;;;;;;;;20.67;20.00;;;;;;;;5057136;28;45359;-77
2022/05/08 05:57:32;;;;;;;;;19.33;18.33;;;;;;;;5057592;28;45312;-76
2022/05/08 05:59:57;;;;;;;;;21.00;20.33;;;;;;;;5056891;28;45411;-75
2022/05/08 06:02:22;;;;;;;;;25.33;25.00;;;;;;;;5056485;28;45384;-77
2022/05/08 06:04:48;;;;;;;;;22.67;20.00;;;;;;;;5057264;28;45424;-76
2022/05/08 06:07:13;;;;;;;;;24.33;21.33;;;;;;;;5057139;28;45344;-76
2022/05/08 06:09:38;;;;;;;;;27.33;24.67;;;;;;;;5057135;28;46977;-76
2022/05/08 06:12:04;;;;;;;;;19.67;19.67;;;;;;;;5057004;28;45315;-76
2022/05/08 06:14:29;;;;;;;;;20.67;20.00;;;;;;;;5057009;28;45454;-75
2022/05/08 06:16:55;;;;;;;;;25.33;19.00;;;;;;;;5057369;28;45383;-76
2022/05/08 06:19:20;;;;;;;;;20.33;20.33;;;;;;;;5056920;28;46925;-76
2022/05/08 06:21:47;;;;;;;;;27.00;21.67;;;;;;;;5056852;28;45355;-76
2022/05/08 06:24:12;;;;;;;;;23.67;20.00;;;;;;;;5056967;28;45298;-76
2022/05/08 06:26:37;;;;;;;;;25.67;21.33;;;;;;;;5056984;28;45360;-77
2022/05/08 06:29:02;;;;;;;;;24.67;20.67;;;;;;;;5056958;28;46132;-76
2022/05/08 06:31:28;;;;;;;;;24.33;21.33;;;;;;;;5056653;28;45343;-77
2022/05/08 06:33:54;;;;;;;;;18.00;18.00;;;;;;;;5057027;28;45233;-77
2022/05/08 06:36:19;;;;;;;;;24.00;21.33;;;;;;;;5056717;28;45416;-76
2022/05/08 06:38:44;;;;;;;;;22.67;21.33;;;;;;;;5056564;28;46323;-76
2022/05/08 06:41:09;;;;;;;;;20.33;18.33;;;;;;;;5060325;28;45209;-76
2022/05/08 06:43:36;;;;;;;;;20.00;19.00;;;;;;;;5060160;28;45397;-76
2022/05/08 06:46:01;;;;;;;;;19.33;19.33;;;;;;;;5060481;28;45343;-77
2022/05/08 06:48:27;;;;;;;;;24.33;21.67;;;;;;;;5059828;28;45386;-77
2022/05/08 06:50:52;;;;;;;;;22.00;18.67;;;;;;;;5059945;28;45433;-77
2022/05/08 06:53:19;;;;;;;;;20.67;20.67;;;;;;;;5060338;28;45424;-76
2022/05/08 06:55:45;;;;;;;;;21.00;20.67;;;;;;;;5060231;28;45446;-76
2022/05/08 06:58:10;;;;;;;;;26.67;24.00;;;;;;;;5059818;28;46004;-77
2022/05/08 07:03:20;;;;;;;;;19.00;19.00;;;;;;;;5059747;28;45318;-75
2022/05/08 07:05:49;;;;;;;;;20.67;17.33;;;;;;;;5060088;28;45236;-77
2022/05/08 07:08:15;;;;;;;;;25.00;19.33;;;;;;;;5059673;28;46386;-75
2022/05/08 07:10:41;;;;;;;;;22.00;18.00;;;;;;;;5059572;28;45451;-76
2022/05/08 07:13:06;;;;;;;;;19.00;16.67;;;;;;;;5060058;28;45368;-76
2022/05/08 07:15:31;;;;;;;;;19.67;15.67;;;;;;;;5059788;28;45583;-76
2022/05/08 07:17:56;;;;;;;;;18.33;15.33;;;;;;;;5059293;28;46357;-77
2022/05/08 07:20:21;;;;;;;;;20.67;19.33;;;;;;;;5059739;28;45391;-76
2022/05/08 07:22:47;;;;;;;;;21.00;19.00;;;;;;;;5059732;28;45312;-76
2022/05/08 07:25:12;;;;;;;;;23.00;22.00;;;;;;;;5059914;28;45359;-76
2022/05/08 07:27:39;;;;;;;;;20.00;20.00;;;;;;;;5059318;28;46666;-75
2022/05/08 07:30:05;;;;;;;;;20.67;19.00;;;;;;;;5059381;28;45348;-77
2022/05/08 07:32:31;;;;;;;;;26.33;22.00;;;;;;;;5059470;28;45298;-76
2022/05/08 07:37:41;;;;;;;;;21.33;21.00;;;;;;;;5059076;28;45801;-76
2022/05/08 07:40:07;;;;;;;;;22.33;18.00;;;;;;;;5059311;28;45320;-76
2022/05/08 07:42:32;;;;;;;;;23.67;19.33;;;;;;;;5059318;28;45433;-76
2022/05/08 07:44:57;;;;;;;;;22.67;19.00;;;;;;;;5059478;28;45269;-75
2022/05/08 07:47:23;;;;;;;;;22.33;20.33;;;;;;;;5058887;28;46982;-76
2022/05/08 07:49:48;;;;;;;;;18.33;16.67;;;;;;;;5058524;28;45170;-77
2022/05/08 07:52:13;;;;;;;;;18.67;17.00;;;;;;;;5059408;28;45404;-76
2022/05/08 07:54:38;;;;;;;;;22.00;17.33;;;;;;;;5059216;28;45399;-77
2022/05/08 07:57:04;;;;;;;;;22.33;20.00;;;;;;;;5059034;28;45464;-76
2022/05/08 07:59:29;;;;;;;;;23.67;21.67;;;;;;;;5058774;28;45366;-77
2022/05/08 08:01:54;;;;;;;;;22.67;18.67;;;;;;;;5058711;28;45462;-77
2022/05/08 08:04:19;;;;;;;;;18.67;18.67;;;;;;;;5059353;28;45324;-77
2022/05/08 08:06:45;;;;;;;;;24.00;20.67;;;;;;;;5058702;28;45596;-77
2022/05/08 08:09:10;;;;;;;;;26.00;23.33;;;;;;;;5059147;28;45366;-77
2022/05/08 08:11:35;;;;;;;;;21.67;18.33;;;;;;;;5059043;28;45688;-77
2022/05/08 08:14:02;;;;;;;;;17.33;15.00;;;;;;;;5059105;28;45400;-77
2022/05/08 08:16:27;;;;;;;;;23.67;19.00;;;;;;;;5058582;28;45480;-76
2022/05/08 08:18:56;;;;;;;;;17.00;16.00;;;;;;;;5058476;28;45736;-77
2022/05/08 08:21:21;;;;;;;;;21.00;18.00;;;;;;;;5058976;28;45281;-75
2022/05/08 08:23:47;;;;;;;;;19.33;16.67;;;;;;;;5058922;28;45273;-77
2022/05/08 08:26:12;;;;;;;;;21.33;18.33;;;;;;;;5058417;28;46179;-78
2022/05/08 08:28:38;;;;;;;;;17.00;17.00;;;;;;;;5058265;28;45792;-76
2022/05/08 08:31:07;;;;;;;;;16.00;13.67;;;;;;;;5058708;28;45352;-76
2022/05/08 08:33:32;;;;;;;;;19.00;18.00;;;;;;;;5058925;28;45394;-77
2022/05/08 08:35:58;;;;;;;;;22.67;17.67;;;;;;;;5058440;28;46402;-77
2022/05/08 08:38:23;;;;;;;;;19.00;17.33;;;;;;;;5058312;28;45320;-77
2022/05/08 08:40:49;;;;;;;;;26.00;21.33;;;;;;;;5058493;28;45317;-77
2022/05/08 08:43:18;;;;;;;;;20.33;16.00;;;;;;;;5058544;28;45427;-75
2022/05/08 08:48:28;;;;;;;;;18.00;16.33;;;;;;;;5058101;28;45213;-77
2022/05/08 08:50:55;;;;;;;;;22.00;20.50;;;;;;;;5058400;28;45312;-77
2022/05/08 08:53:20;;;;;;;;;18.67;16.67;;;;;;;;5058637;28;45395;-78
2022/05/08 08:55:49;;;;;;;;;21.67;18.67;;;;;;;;5057857;28;45458;-75
2022/05/08 08:58:17;;;;;;;;;19.67;15.33;;;;;;;;5058021;28;45386;-76
2022/05/08 09:00:43;;;;;;;;;22.00;17.33;;;;;;;;5057884;28;45241;-77
2022/05/08 09:03:08;;;;;;;;;20.67;16.67;;;;;;;;5057585;28;45534;-76
2022/05/08 09:05:34;;;;;;;;;21.33;16.00;;;;;;;;5057715;28;45562;-75
2022/05/08 09:08:00;;;;;;;;;18.67;16.33;;;;;;;;5058023;28;45306;-77
2022/05/08 09:10:35;;;;;;;;;22.00;18.00;;;;;;;;5057644;28;45773;-76
2022/05/08 09:13:02;;;;;;;;;22.00;14.67;;;;;;;;5057867;28;45268;-78
2022/05/08 09:15:29;;;;;;;;;28.00;22.00;;;;;;;;5057639;28;46385;-78
2022/05/08 09:17:55;;;;;;;;;20.33;16.67;;;;;;;;5056980;28;45518;-77
2022/05/08 09:20:26;;;;;;;;;23.33;14.33;;;;;;;;5057675;28;45183;-75
2022/05/08 09:23:03;;;;;;;;;17.00;15.67;;;;;;;;5058075;28;45563;-77
2022/05/08 09:25:40;;;;;;;;;15.00;15.00;;;;;;;;5058042;28;46388;-77
2022/05/08 09:28:06;;;;;;;;;24.33;21.33;;;;;;;;5056588;28;45775;-77
2022/05/08 09:30:31;;;;;;;;;18.00;15.67;;;;;;;;5058322;28;45370;-78
2022/05/08 09:32:56;;;;;;;;;24.33;18.33;;;;;;;;5058174;28;45275;-77
2022/05/08 09:35:21;;;;;;;;;24.00;18.67;;;;;;;;5057845;28;45363;-77
2022/05/08 09:37:53;;;;;;;;;18.67;17.67;;;;;;;;5057931;28;45241;-76
2022/05/08 09:40:19;;;;;;;;;21.00;16.33;;;;;;;;5057473;28;45332;-77
2022/05/08 09:42:46;;;;;;;;;20.00;18.33;;;;;;;;5057585;28;45550;-76
2022/05/08 09:45:12;;;;;;;;;28.33;22.67;;;;;;;;5057361;28;45485;-78
2022/05/08 09:47:47;;;;;;;;;35.67;28.00;;;;;;;;5057335;28;45349;-77
2022/05/08 09:50:13;;;;;;;;;22.33;21.33;;;;;;;;5057792;28;45329;-77
2022/05/08 09:52:40;;;;;;;;;22.00;18.33;;;;;;;;5057673;28;45198;-76
2022/05/08 09:55:06;;;;;;;;;21.00;18.33;;;;;;;;5057476;28;45340;-77
2022/05/08 09:57:33;;;;;;;;;16.00;16.00;;;;;;;;5058655;28;45766;-76
2022/05/08 09:59:59;;;;;;;;;22.00;20.00;;;;;;;;5072071;28;45346;-78
2022/05/08 10:02:24;;;;;;;;;16.67;15.67;;;;;;;;5075663;28;45506;-80
2022/05/08 10:04:50;;;;;;;;;15.67;15.33;;;;;;;;5076982;27;46354;-79
2022/05/08 10:07:15;;;;;;;;;18.67;13.33;;;;;;;;5059864;27;45441;-78
2022/05/08 10:15:19;;;;;;;;;12.67;11.67;;;;;;;;5060701;28;45807;-79
2022/05/08 10:17:44;;;;;;;;;9.00;9.00;;;;;;;;5061418;28;45383;-81
2022/05/08 10:20:09;;;;;;;;;14.00;13.00;;;;;;;;5061127;28;45296;-79
2022/05/08 10:22:50;;;;;;;;;12.33;11.33;;;;;;;;5071423;28;45271;-80
2022/05/08 10:25:16;;;;;;;;;9.67;9.67;;;;;;;;5080964;27;45576;-80
2022/05/08 10:28:01;;;;;;;;;9.33;8.33;;;;;;;;5080616;28;45394;-77
2022/05/08 10:30:27;;;;;;;;;7.00;7.00;;;;;;;;5080337;27;45371;-75
2022/05/08 10:32:52;;;;;;;;;11.33;10.00;;;;;;;;5080825;27;45298;-77
2022/05/08 10:35:21;;;;;;;;;10.00;9.00;;;;;;;;5079410;27;46450;-79
2022/05/08 10:37:47;;;;;;;;;9.33;6.33;;;;;;;;5079644;27;45354;-78
2022/05/08 10:40:21;;;;;;;;;7.00;7.00;;;;;;;;5080505;27;45275;-76
2022/05/08 10:42:47;;;;;;;;;7.33;6.33;;;;;;;;5069693;27;45371;-77
2022/05/08 10:45:30;;;;;;;;;5.67;4.67;;;;;;;;5080047;27;45204;-76
2022/05/08 10:48:05;;;;;;;;;8.00;6.67;;;;;;;;5081202;27;45390;-77
2022/05/08 10:50:30;;;;;;;;;8.00;5.00;;;;;;;;5080606;27;45921;-78
2022/05/08 10:52:57;;;;;;;;;6.33;3.67;;;;;;;;5080616;27;45346;-78
2022/05/08 10:55:22;;;;;;;;;5.00;3.00;;;;;;;;5080069;27;45287;-77
2022/05/08 10:57:48;;;;;;;;;3.67;3.67;;;;;;;;5070042;27;45375;-78
2022/05/08 11:00:17;;;;;;;;;5.33;5.33;;;;;;;;5060138;28;45393;-81
2022/05/08 11:02:43;;;;;;;;;7.33;4.33;;;;;;;;5059897;28;45580;-81
2022/05/08 11:05:09;;;;;;;;;3.00;3.00;;;;;;;;5059482;28;47655;-80
2022/05/08 11:07:34;;;;;;;;;6.00;4.33;;;;;;;;5059942;28;45256;-80
2022/05/08 11:10:00;;;;;;;;;4.00;4.00;;;;;;;;5059734;28;45383;-81
2022/05/08 11:12:26;;;;;;;;;7.33;4.33;;;;;;;;5060152;28;45278;-80
2022/05/08 11:15:05;;;;;;;;;4.67;4.67;;;;;;;;5059919;28;46085;-80
2022/05/08 11:17:30;;;;;;;;;4.33;3.67;;;;;;;;5059887;28;45403;-75
2022/05/08 11:19:58;;;;;;;;;3.00;3.00;;;;;;;;5075119;28;45523;-76
2022/05/08 11:22:23;;;;;;;;;3.00;3.00;;;;;;;;5080155;28;45350;-79
2022/05/08 11:24:49;;;;;;;;;6.00;5.00;;;;;;;;5078742;28;46519;-78
2022/05/08 11:27:15;;;;;;;;;3.00;3.00;;;;;;;;5080586;27;45453;-77
2022/05/08 11:29:47;;;;;;;;;3.00;3.00;;;;;;;;5080365;27;45330;-82
2022/05/08 11:38:00;;;;;;;;;3.00;3.00;;;;;;;;5080135;28;45303;-78
2022/05/08 11:40:26;;;;;;;;;2.67;2.67;;;;;;;;5080182;27;45307;-78
2022/05/08 11:42:51;;;;;;;;;6.00;3.00;;;;;;;;5080134;27;45291;-78
2022/05/08 11:45:16;;;;;;;;;3.00;3.00;;;;;;;;5080081;28;45462;-79
2022/05/08 11:47:48;;;;;;;;;2.00;2.00;;;;;;;;5079875;28;45316;-78
2022/05/08 11:50:14;;;;;;;;;3.00;1.67;;;;;;;;5079673;27;45312;-78
2022/05/08 11:52:39;;;;;;;;;4.33;2.00;;;;;;;;5080179;28;45180;-78
2022/05/08 11:55:04;;;;;;;;;3.67;2.00;;;;;;;;5079549;27;45304;-79
2022/05/08 11:57:39;;;;;;;;;3.33;2.00;;;;;;;;5079896;28;45252;-78
2022/05/08 12:00:06;;;;;;;;;3.00;3.00;;;;;;;;5079635;27;45224;-78
2022/05/08 12:02:40;;;;;;;;;3.33;2.00;;;;;;;;5075590;27;45276;-77
2022/05/08 12:05:06;;;;;;;;;2.00;2.00;;;;;;;;5058985;28;46448;-78
2022/05/08 12:07:38;;;;;;;;;6.33;3.00;;;;;;;;5064665;27;45459;-79
2022/05/08 12:10:04;;;;;;;;;2.00;2.00;;;;;;;;5059390;28;45269;-79
2022/05/08 12:12:30;;;;;;;;;6.00;2.00;;;;;;;;5071019;28;45411;-77
2022/05/08 12:15:02;;;;;;;;;3.00;2.00;;;;;;;;5058881;28;45428;-77
2022/05/08 12:17:29;;;;;;;;;2.67;2.67;;;;;;;;5059514;28;45352;-77
2022/05/08 12:19:54;;;;;;;;;3.00;3.00;;;;;;;;5058995;28;45309;-79
2022/05/08 12:22:29;;;;;;;;;3.00;1.67;;;;;;;;5059052;28;45224;-77
2022/05/08 12:24:58;;;;;;;;;1.67;1.00;;;;;;;;5078796;27;45330;-79
2022/05/08 12:27:23;;;;;;;;;1.33;1.33;;;;;;;;5078996;27;45339;-79
2022/05/08 12:29:50;;;;;;;;;3.33;2.00;;;;;;;;5085382;27;45328;-78
2022/05/08 12:32:16;;;;;;;;;2.00;2.00;;;;;;;;5080816;27;45361;-78
2022/05/08 12:34:42;;;;;;;;;4.00;3.00;;;;;;;;5058351;28;46343;-79
2022/05/08 12:37:12;;;;;;;;;2.00;2.00;;;;;;;;5075157;27;46186;-81
2022/05/08 12:39:38;;;;;;;;;1.67;1.67;;;;;;;;5085623;27;45516;-81
2022/05/08 12:42:03;;;;;;;;;3.00;1.67;;;;;;;;5078132;28;45373;-79
2022/05/08 12:44:28;;;;;;;;;1.67;1.00;;;;;;;;5083510;27;46334;-80
2022/05/08 12:46:54;;;;;;;;;1.33;1.00;;;;;;;;5083750;27;45407;-72
2022/05/08 12:49:19;;;;;;;;;1.00;1.00;;;;;;;;5075491;27;45567;-75
2022/05/08 12:51:45;;;;;;;;;2.00;2.00;;;;;;;;5073899;28;45385;-77
2022/05/08 12:54:11;;;;;;;;;2.00;2.00;;;;;;;;5077784;27;45587;-75
2022/05/08 12:56:36;;;;;;;;;3.00;1.00;;;;;;;;5078131;27;45391;-72
2022/05/08 13:01:46;;;;;;;;;2.67;2.00;;;;;;;;5077828;28;45474;-76
2022/05/08 13:04:11;;;;;;;;;2.33;2.33;;;;;;;;5077409;27;45443;-74
2022/05/08 13:06:37;;;;;;;;;1.67;1.67;;;;;;;;5094198;27;45459;-74
2022/05/08 13:09:03;;;;;;;;;3.00;3.00;;;;;;;;5098120;27;45456;-73
2022/05/08 13:11:28;;;;;;;;;2.00;1.00;;;;;;;;5098397;27;45429;-74
2022/05/08 13:13:54;;;;;;;;;2.00;1.67;;;;;;;;5097718;27;46682;-80
2022/05/08 13:16:19;;;;;;;;;2.67;2.00;;;;;;;;5098164;27;45390;-77
2022/05/08 13:18:45;;;;;;;;;4.00;2.00;;;;;;;;5080356;27;45284;-75
2022/05/08 13:21:12;;;;;;;;;3.00;1.33;;;;;;;;5077076;28;45293;-80
2022/05/08 13:23:37;;;;;;;;;4.33;1.67;;;;;;;;5077326;27;46270;-81
2022/05/08 13:26:03;;;;;;;;;3.00;1.00;;;;;;;;5076596;27;45457;-77
2022/05/08 13:28:30;;;;;;;;;0.67;0.67;;;;;;;;5077912;27;45366;-77
2022/05/08 13:30:56;;;;;;;;;1.00;1.00;;;;;;;;5077329;28;45979;-79
2022/05/08 13:33:21;;;;;;;;;1.00;1.00;;;;;;;;5076880;27;46976;-76
2022/05/08 13:35:47;;;;;;;;;1.33;1.33;;;;;;;;5077097;27;45317;-82
2022/05/08 13:38:13;;;;;;;;;1.00;1.00;;;;;;;;5077415;27;45444;-77
2022/05/08 13:40:39;;;;;;;;;3.00;2.00;;;;;;;;5077651;27;45413;-77
2022/05/08 13:43:04;;;;;;;;;3.00;2.00;;;;;;;;5077106;28;45474;-78
2022/05/08 13:45:29;;;;;;;;;1.67;1.33;;;;;;;;5076956;27;45350;-81
2022/05/08 13:47:54;;;;;;;;;2.00;1.33;;;;;;;;5077039;27;45285;-81
2022/05/08 13:50:20;;;;;;;;;0.00;0.00;;;;;;;;5077084;27;45217;-78
2022/05/08 13:52:46;;;;;;;;;1.00;1.00;;;;;;;;5076957;27;45430;-73
2022/05/08 13:55:14;;;;;;;;;1.33;1.33;;;;;;;;5076364;27;45449;-79
2022/05/08 13:57:40;;;;;;;;;2.33;2.00;;;;;;;;5076931;27;45520;-76
2022/05/08 14:00:07;;;;;;;;;1.33;1.33;;;;;;;;5075983;27;45727;-76
2022/05/08 14:02:32;;;;;;;;;3.00;1.33;;;;;;;;5075632;27;46261;-70
2022/05/08 14:04:58;;;;;;;;;1.00;1.00;;;;;;;;5080571;27;45521;-79
2022/05/08 14:07:23;;;;;;;;;3.33;1.67;;;;;;;;5079832;27;45759;-71
2022/05/08 14:09:48;;;;;;;;;1.67;1.67;;;;;;;;5076182;27;45364;-72
2022/05/08 14:12:15;;;;;;;;;3.00;1.00;;;;;;;;5075505;27;45635;-72
2022/05/08 14:14:40;;;;;;;;;2.00;2.00;;;;;;;;5076428;28;45495;-77
2022/05/08 14:17:05;;;;;;;;;0.00;0.00;;;;;;;;5076994;28;45370;-76
2022/05/08 14:19:31;;;;;;;;;3.00;1.33;;;;;;;;5076870;28;45395;-76
2022/05/08 14:21:58;;;;;;;;;3.00;1.67;;;;;;;;5076389;28;46457;-78
2022/05/08 14:24:24;;;;;;;;;1.33;1.33;;;;;;;;5076801;28;45362;-75
2022/05/08 14:26:49;;;;;;;;;4.00;2.00;;;;;;;;5076640;28;45401;-85
2022/05/08 14:29:14;;;;;;;;;4.00;3.00;;;;;;;;5077168;28;45323;-76
2022/05/08 14:37:07;;;;;;;;;4.00;1.33;;;;;;;;5076735;28;45395;-80
2022/05/08 14:39:32;;;;;;;;;1.00;1.00;;;;;;;;5076961;28;45345;-73
2022/05/08 14:41:57;;;;;;;;;1.67;1.67;;;;;;;;5076185;28;45447;-79
2022/05/08 14:44:23;;;;;;;;;1.00;1.00;;;;;;;;5076111;28;45441;-71
2022/05/08 14:46:48;;;;;;;;;4.67;1.67;;;;;;;;5075414;28;45354;-77
2022/05/08 14:49:13;;;;;;;;;3.33;3.00;;;;;;;;5076738;27;45323;-76
2022/05/08 14:51:38;;;;;;;;;1.00;1.00;;;;;;;;5075878;28;46479;-71
2022/05/08 14:54:04;;;;;;;;;2.00;2.00;;;;;;;;5077025;27;45480;-72